Terminal Aerodrome Forecast
Issued by NWS

Home | Current Version | Previous Version | Text Only | Print | Product List | Glossary Off
Versions: 1 2 3 4 5 6 7 8 9 10 11 12

000
FTUS43 KMPX 170529
TAFRNH
TAF
KRNH 170529Z 1706/1806 VRB02KT P6SM BKN090
     FM170800 33003KT P6SM FEW090
     FM171800 29007KT P6SM SKC
     FM180100 31003KT P6SM FEW250=

USA.gov is the U.S. government's official web portal to all federal, state and local government web resources and services.